createdAt,value
2023-02-20T00:04:59.357Z,101630.78
2023-02-20T00:10:01.852Z,101620.81
2023-02-20T00:15:06.791Z,101617.84
2023-02-20T00:20:10.160Z,101608.38
2023-02-20T00:25:12.916Z,101607.91
2023-02-20T00:30:19.817Z,101588.28
2023-02-20T00:35:23.382Z,101578.94
2023-02-20T00:40:26.903Z,101564.25
2023-02-20T00:45:30.732Z,101553.97
2023-02-20T00:50:33.197Z,101532.41
2023-02-20T00:55:35.661Z,101522.25
2023-02-20T01:00:39.480Z,101510.28
2023-02-20T01:05:41.968Z,101509.03
2023-02-20T01:10:44.436Z,101500.75
2023-02-20T01:15:48.282Z,101484.63
2023-02-20T01:20:50.771Z,101483.34
2023-02-20T01:25:53.246Z,101473.84
2023-02-20T01:30:57.143Z,101465.38
2023-02-20T01:35:59.673Z,101449.16
2023-02-20T01:41:02.435Z,101432.13
2023-02-20T01:46:44.830Z,101400.22
2023-02-20T01:51:51.280Z,101386.56
2023-02-20T01:56:57.577Z,101382.56
2023-02-20T02:02:01.720Z,101367.97
2023-02-20T02:07:05.469Z,101356.16
2023-02-20T02:12:09.045Z,101342.72
2023-02-20T02:17:44.481Z,101344.81
2023-02-20T02:23:17.532Z,101322.56
2023-02-20T02:28:45.615Z,101303.97
2023-02-20T02:34:29.333Z,101296.28
2023-02-20T02:39:42.526Z,101286.13
2023-02-20T02:44:52.695Z,101277.66
2023-02-20T02:50:00.604Z,101263.19
2023-02-20T02:55:05.175Z,101254.59
2023-02-20T03:00:12.135Z,101228.94
2023-02-20T03:05:20.090Z,101245.63
2023-02-20T03:10:31.650Z,101241.69
2023-02-20T03:15:39.434Z,101226.19
2023-02-20T03:20:45.235Z,101214.47
2023-02-20T03:25:54.585Z,101205.19
2023-02-20T03:31:01.833Z,101201.03
2023-02-20T03:36:25.928Z,101219.53
2023-02-20T03:41:50.229Z,101231.75
2023-02-20T03:46:55.773Z,101230.19
2023-02-20T03:51:58.500Z,101222.38
2023-02-20T03:57:06.493Z,101212.97
2023-02-20T04:02:13.506Z,101203.59
2023-02-20T04:07:20.241Z,101197.75
2023-02-20T04:12:28.049Z,101193.72
2023-02-20T04:17:33.925Z,101188.75
2023-02-20T04:22:42.567Z,101164.63
2023-02-20T04:27:46.658Z,101146.88
2023-02-20T04:32:49.135Z,101123.00
2023-02-20T04:37:52.072Z,101113.63
2023-02-20T04:42:55.923Z,101082.81
2023-02-20T04:47:58.400Z,101062.41
2023-02-20T04:53:01.532Z,101069.81
2023-02-20T04:58:05.466Z,101069.50
2023-02-20T05:03:08.037Z,101040.25
2023-02-20T05:08:10.615Z,101046.72
2023-02-20T05:13:14.444Z,101024.41
2023-02-20T05:18:25.628Z,101011.25
2023-02-20T05:23:28.112Z,100999.34
2023-02-20T05:28:31.903Z,100993.09
2023-02-20T05:33:34.426Z,101010.59
2023-02-20T05:38:37.060Z,101004.94
2023-02-20T05:43:40.901Z,100989.16
2023-02-20T05:48:43.631Z,101007.66
2023-02-20T05:53:46.124Z,101000.84
2023-02-20T05:58:50.078Z,100990.41
2023-02-20T06:03:52.974Z,100967.81
2023-02-20T06:08:55.477Z,100954.09
2023-02-20T06:13:59.305Z,100947.41
2023-02-20T06:19:02.290Z,100959.66
2023-02-20T06:24:06.296Z,100947.66
2023-02-20T06:29:10.376Z,100945.16
2023-02-20T06:34:13.604Z,100917.56
2023-02-20T06:39:16.383Z,100909.06
2023-02-20T06:44:20.545Z,100900.78
2023-02-20T06:49:23.086Z,100883.53
2023-02-20T06:54:25.569Z,100879.53
2023-02-20T06:59:29.442Z,100868.06
2023-02-20T07:04:31.980Z,100876.03
2023-02-20T07:09:34.521Z,100866.56
2023-02-20T07:14:38.319Z,100858.28
2023-02-20T07:19:40.827Z,100869.97
2023-02-20T07:24:43.317Z,100862.25
2023-02-20T07:29:47.777Z,100832.03
2023-02-20T07:35:02.887Z,100834.06
2023-02-20T07:40:07.105Z,100826.06
2023-02-20T07:45:12.496Z,100809.13
2023-02-20T07:50:15.686Z,100815.72
2023-02-20T07:55:19.205Z,100807.50
2023-02-20T08:00:23.818Z,100811.31
2023-02-20T08:05:26.806Z,100810.16
2023-02-20T08:10:30.450Z,100801.25
2023-02-20T08:15:34.278Z,100778.91
2023-02-20T08:20:36.762Z,100758.31
2023-02-20T08:25:39.243Z,100749.88
2023-02-20T08:30:43.174Z,100748.47
2023-02-20T08:35:45.730Z,100755.94
2023-02-20T08:40:48.277Z,100737.03
2023-02-20T08:45:52.467Z,100750.31
2023-02-20T08:50:55.006Z,100755.13
2023-02-20T08:55:57.580Z,100735.28
2023-02-20T09:01:01.388Z,100716.19
2023-02-20T09:06:04.016Z,100711.97
2023-02-20T09:11:10.037Z,100713.25
2023-02-20T09:16:15.092Z,100702.19
2023-02-20T09:21:20.211Z,100698.31
2023-02-20T09:26:22.681Z,100674.84
2023-02-20T09:31:26.709Z,100672.00
2023-02-20T09:36:29.327Z,100670.78
2023-02-20T09:41:43.049Z,100672.97
2023-02-20T09:46:49.550Z,100676.69
2023-02-20T09:51:56.845Z,100684.00
2023-02-20T09:57:02.269Z,100680.50
2023-02-20T10:02:17.188Z,100683.31
2023-02-20T10:07:26.008Z,100663.53
2023-02-20T10:12:36.622Z,100653.25
2023-02-20T10:17:49.054Z,100670.06
2023-02-20T10:22:59.891Z,100667.81
2023-02-20T10:28:08.162Z,100676.59
2023-02-20T10:33:25.310Z,100670.63
2023-02-20T10:38:34.962Z,100658.06
2023-02-20T10:43:44.974Z,100658.06
2023-02-20T10:48:48.879Z,100667.63
2023-02-20T10:53:58.240Z,100655.16
2023-02-20T10:59:10.030Z,100659.41
2023-02-20T11:04:17.091Z,100654.06
2023-02-20T11:09:19.933Z,100652.25
2023-02-20T11:14:39.866Z,100643.50
2023-02-20T11:19:47.027Z,100646.03
2023-02-20T11:24:49.576Z,100638.19
2023-02-20T11:29:55.821Z,100638.28
2023-02-20T11:35:16.474Z,100620.22
2023-02-20T11:40:29.296Z,100595.72
2023-02-20T11:45:31.778Z,100587.06
2023-02-20T11:50:41.554Z,100588.97
2023-02-20T11:55:46.493Z,100576.78
2023-02-20T12:00:56.088Z,100583.09
2023-02-20T12:06:01.793Z,100576.31
2023-02-20T12:11:08.669Z,100574.00
2023-02-20T12:16:27.902Z,100577.78
2023-02-20T12:21:44.710Z,100554.94
2023-02-20T12:26:54.218Z,100559.56
2023-02-20T12:32:09.981Z,100564.50
2023-02-20T12:37:24.217Z,100580.94
2023-02-20T12:42:37.082Z,100564.81
2023-02-20T12:47:43.851Z,100568.88
2023-02-20T12:53:07.994Z,100564.44
2023-02-20T12:58:32.098Z,100577.16
2023-02-20T13:03:44.558Z,100581.84
2023-02-20T13:08:59.843Z,100574.47
2023-02-20T13:14:10.313Z,100565.41
2023-02-20T13:19:20.831Z,100569.31
2023-02-20T13:24:33.884Z,100570.22
2023-02-20T13:29:38.999Z,100571.06
2023-02-20T13:34:41.649Z,100563.66
2023-02-20T13:39:45.479Z,100566.53
2023-02-20T13:44:47.938Z,100575.44
2023-02-20T13:50:00.767Z,100567.00
2023-02-20T13:55:18.745Z,100565.44
2023-02-20T14:00:26.517Z,100563.41
2023-02-20T14:05:31.358Z,100573.78
2023-02-20T14:10:36.771Z,100578.69
2023-02-20T14:15:46.933Z,100563.88
2023-02-20T14:20:50.330Z,100554.84
2023-02-20T14:26:02.139Z,100561.91
2023-02-20T14:31:20.788Z,100560.09
2023-02-20T14:36:53.119Z,100565.00
2023-02-20T14:41:59.759Z,100570.25
2023-02-20T14:47:08.280Z,100575.31
2023-02-20T14:52:21.450Z,100573.75
2023-02-20T14:57:26.871Z,100581.19
2023-02-20T15:02:34.278Z,100581.44
2023-02-20T15:07:40.284Z,100580.19
2023-02-20T15:12:44.169Z,100565.63
2023-02-20T15:17:46.672Z,100587.31
2023-02-20T15:22:49.307Z,100573.97
2023-02-20T15:28:08.115Z,100578.81
2023-02-20T15:33:11.093Z,100574.38
2023-02-20T15:38:14.025Z,100561.44
2023-02-20T15:43:43.025Z,100563.19
2023-02-20T15:48:40.367Z,100573.91
2023-02-20T15:53:45.802Z,100571.66
2023-02-20T15:58:50.646Z,100576.16
2023-02-20T16:04:05.897Z,100578.22
2023-02-20T16:09:08.402Z,100586.00
2023-02-20T16:14:14.777Z,100584.66
2023-02-20T16:19:19.106Z,100581.19
2023-02-20T16:24:22.142Z,100587.25
2023-02-20T16:29:32.257Z,100586.53
2023-02-20T16:34:35.308Z,100589.88
2023-02-20T16:39:37.858Z,100595.94
2023-02-20T16:44:45.412Z,100586.78
2023-02-20T16:49:49.361Z,100579.00
2023-02-20T16:54:53.076Z,100578.91
2023-02-20T16:59:59.517Z,100583.53
2023-02-20T17:05:02.404Z,100586.16
2023-02-20T17:10:05.393Z,100595.81
2023-02-20T17:15:11.660Z,100601.50
2023-02-20T17:20:15.575Z,100615.44
2023-02-20T17:25:21.349Z,100608.84
2023-02-20T17:30:26.264Z,100621.28
2023-02-20T17:35:28.993Z,100614.25
2023-02-20T17:40:31.518Z,100625.97
2023-02-20T17:45:35.411Z,100644.75
2023-02-20T17:50:37.924Z,100648.22
2023-02-20T17:55:40.419Z,100662.31
2023-02-20T18:00:45.504Z,100660.56
2023-02-20T18:05:48.050Z,100667.91
2023-02-20T18:10:50.567Z,100671.16
2023-02-20T18:15:54.447Z,100676.25
2023-02-20T18:20:57.032Z,100678.06
2023-02-20T18:25:59.548Z,100684.47
2023-02-20T18:31:03.354Z,100690.09
2023-02-20T18:36:19.411Z,100683.56
2023-02-20T18:41:21.919Z,100688.81
2023-02-20T18:46:30.706Z,100700.13
2023-02-20T18:51:35.833Z,100685.19
2023-02-20T18:56:38.983Z,100696.34
2023-02-20T19:01:43.940Z,100690.53
2023-02-20T19:06:46.930Z,100699.22
2023-02-20T19:11:50.474Z,100685.84
2023-02-20T19:16:55.960Z,100701.59
2023-02-20T19:21:58.941Z,100693.44
2023-02-20T19:27:01.411Z,100692.16
2023-02-20T19:32:05.811Z,100687.25
2023-02-20T19:37:08.397Z,100696.06
2023-02-20T19:42:10.937Z,100706.13
2023-02-20T19:47:16.984Z,100706.13
2023-02-20T19:52:19.621Z,100697.38
2023-02-20T19:57:22.134Z,100702.63
2023-02-20T20:02:26.091Z,100691.66
2023-02-20T20:07:28.710Z,100699.81
2023-02-20T20:12:49.234Z,100701.72
2023-02-20T20:17:55.194Z,100698.91
2023-02-20T20:23:01.185Z,100685.78
2023-02-20T20:28:07.148Z,100692.38
2023-02-20T20:33:11.129Z,100688.06
2023-02-20T20:38:13.636Z,100681.81
2023-02-20T20:43:16.319Z,100676.41
2023-02-20T20:48:20.399Z,100666.72
2023-02-20T20:53:22.969Z,100659.47
2023-02-20T20:58:25.475Z,100666.44
2023-02-20T21:03:29.349Z,100674.13
2023-02-20T21:08:33.753Z,100672.22
2023-02-20T21:13:36.248Z,100670.41
2023-02-20T21:18:40.128Z,100682.00
2023-02-20T21:23:45.285Z,100682.63
2023-02-20T21:28:47.850Z,100696.53
2023-02-20T21:33:52.413Z,100707.19
2023-02-20T21:38:55.217Z,100701.94
2023-02-20T21:44:15.348Z,100708.31
2023-02-20T21:49:19.634Z,100712.34
2023-02-20T21:54:24.047Z,100721.84
2023-02-20T21:59:26.040Z,100712.69
2023-02-20T22:10:09.305Z,100706.88
2023-02-20T22:15:31.121Z,100698.50
2023-02-20T22:20:51.585Z,100711.50
2023-02-20T22:26:13.290Z,100718.09
2023-02-20T22:31:33.761Z,100709.22
2023-02-20T22:36:53.785Z,100713.75
2023-02-20T22:42:18.472Z,100716.38
2023-02-20T22:47:38.668Z,100712.22
2023-02-20T22:52:58.841Z,100718.81
2023-02-20T22:58:20.348Z,100718.91
2023-02-20T23:03:40.658Z,100726.84
2023-02-20T23:09:01.954Z,100740.13
2023-02-20T23:14:23.657Z,100739.31
2023-02-20T23:19:44.027Z,100734.88
2023-02-20T23:25:04.315Z,100735.69
2023-02-20T23:30:27.332Z,100730.78
2023-02-20T23:35:47.755Z,100708.00
2023-02-20T23:41:08.149Z,100712.97
2023-02-20T23:46:29.862Z,100719.38
2023-02-20T23:51:50.718Z,100729.56
2023-02-20T23:57:10.948Z,100712.84
